sensor_id;sensor_type;location;lat;lon;timestamp;P1;durP1;ratioP1;P2;durP2;ratioP2
52322;SDS011;38263;52.920;6.238;2023-03-23T00:01:47;14.35;;;10.55;;
52322;SDS011;38263;52.920;6.238;2023-03-23T00:04:15;15.05;;;10.80;;
52322;SDS011;38263;52.920;6.238;2023-03-23T00:06:41;13.82;;;10.02;;
52322;SDS011;38263;52.920;6.238;2023-03-23T00:09:10;13.98;;;10.85;;
52322;SDS011;38263;52.920;6.238;2023-03-23T00:11:36;15.43;;;10.98;;
52322;SDS011;38263;52.920;6.238;2023-03-23T00:14:04;13.95;;;10.57;;
52322;SDS011;38263;52.920;6.238;2023-03-23T00:16:30;14.23;;;10.68;;
52322;SDS011;38263;52.920;6.238;2023-03-23T00:18:58;16.50;;;9.85;;
52322;SDS011;38263;52.920;6.238;2023-03-23T00:21:25;15.05;;;8.70;;
52322;SDS011;38263;52.920;6.238;2023-03-23T00:24:00;16.25;;;10.55;;
52322;SDS011;38263;52.920;6.238;2023-03-23T00:26:28;15.68;;;9.55;;
52322;SDS011;38263;52.920;6.238;2023-03-23T00:28:54;12.80;;;9.85;;
52322;SDS011;38263;52.920;6.238;2023-03-23T00:31:21;16.48;;;8.70;;
52322;SDS011;38263;52.920;6.238;2023-03-23T00:33:46;15.88;;;10.13;;
52322;SDS011;38263;52.920;6.238;2023-03-23T00:36:13;16.90;;;9.10;;
52322;SDS011;38263;52.920;6.238;2023-03-23T00:38:39;13.57;;;8.15;;
52322;SDS011;38263;52.920;6.238;2023-03-23T00:41:09;12.38;;;8.45;;
52322;SDS011;38263;52.920;6.238;2023-03-23T00:43:36;12.18;;;8.23;;
52322;SDS011;38263;52.920;6.238;2023-03-23T00:46:02;10.32;;;7.95;;
52322;SDS011;38263;52.920;6.238;2023-03-23T00:48:34;9.82;;;7.28;;
52322;SDS011;38263;52.920;6.238;2023-03-23T00:51:01;15.63;;;8.15;;
52322;SDS011;38263;52.920;6.238;2023-03-23T00:53:31;13.55;;;7.60;;
52322;SDS011;38263;52.920;6.238;2023-03-23T00:55:57;14.02;;;8.35;;
52322;SDS011;38263;52.920;6.238;2023-03-23T00:58:23;14.73;;;7.30;;
52322;SDS011;38263;52.920;6.238;2023-03-23T01:00:49;13.18;;;6.97;;
52322;SDS011;38263;52.920;6.238;2023-03-23T01:03:15;12.13;;;6.57;;
52322;SDS011;38263;52.920;6.238;2023-03-23T01:05:43;14.32;;;7.80;;
52322;SDS011;38263;52.920;6.238;2023-03-23T01:08:12;9.95;;;6.25;;
52322;SDS011;38263;52.920;6.238;2023-03-23T01:10:39;11.98;;;6.93;;
52322;SDS011;38263;52.920;6.238;2023-03-23T01:13:05;9.05;;;5.70;;
52322;SDS011;38263;52.920;6.238;2023-03-23T01:15:31;9.98;;;5.97;;
52322;SDS011;38263;52.920;6.238;2023-03-23T01:17:57;12.63;;;6.55;;
52322;SDS011;38263;52.920;6.238;2023-03-23T01:20:24;8.35;;;6.10;;
52322;SDS011;38263;52.920;6.238;2023-03-23T01:22:56;10.77;;;5.75;;
52322;SDS011;38263;52.920;6.238;2023-03-23T01:25:25;10.20;;;6.10;;
52322;SDS011;38263;52.920;6.238;2023-03-23T01:27:52;11.82;;;5.97;;
52322;SDS011;38263;52.920;6.238;2023-03-23T01:30:18;11.05;;;5.90;;
52322;SDS011;38263;52.920;6.238;2023-03-23T01:32:43;10.35;;;5.53;;
52322;SDS011;38263;52.920;6.238;2023-03-23T01:35:11;7.35;;;5.32;;
52322;SDS011;38263;52.920;6.238;2023-03-23T01:37:37;8.70;;;5.82;;
52322;SDS011;38263;52.920;6.238;2023-03-23T01:40:03;9.73;;;5.82;;
52322;SDS011;38263;52.920;6.238;2023-03-23T01:42:30;10.07;;;6.13;;
52322;SDS011;38263;52.920;6.238;2023-03-23T01:45:20;9.90;;;5.13;;
52322;SDS011;38263;52.920;6.238;2023-03-23T01:47:47;11.00;;;5.68;;
52322;SDS011;38263;52.920;6.238;2023-03-23T01:50:16;9.60;;;5.35;;
52322;SDS011;38263;52.920;6.238;2023-03-23T01:52:42;8.43;;;5.72;;
52322;SDS011;38263;52.920;6.238;2023-03-23T01:55:08;11.82;;;5.95;;
52322;SDS011;38263;52.920;6.238;2023-03-23T01:57:34;8.70;;;5.55;;
52322;SDS011;38263;52.920;6.238;2023-03-23T02:00:03;8.00;;;4.82;;
52322;SDS011;38263;52.920;6.238;2023-03-23T02:02:33;8.05;;;5.18;;
52322;SDS011;38263;52.920;6.238;2023-03-23T02:05:02;7.13;;;4.93;;
52322;SDS011;38263;52.920;6.238;2023-03-23T02:07:29;10.02;;;5.18;;
52322;SDS011;38263;52.920;6.238;2023-03-23T02:09:57;9.10;;;5.28;;
52322;SDS011;38263;52.920;6.238;2023-03-23T02:12:24;7.57;;;5.18;;
52322;SDS011;38263;52.920;6.238;2023-03-23T02:14:50;7.45;;;4.95;;
52322;SDS011;38263;52.920;6.238;2023-03-23T02:32:27;9.48;;;4.75;;
52322;SDS011;38263;52.920;6.238;2023-03-23T02:37:48;9.10;;;4.38;;
52322;SDS011;38263;52.920;6.238;2023-03-23T02:40:17;10.60;;;4.75;;
52322;SDS011;38263;52.920;6.238;2023-03-23T02:42:47;10.63;;;4.55;;
52322;SDS011;38263;52.920;6.238;2023-03-23T02:45:15;9.68;;;4.60;;
52322;SDS011;38263;52.920;6.238;2023-03-23T02:47:42;10.25;;;4.18;;
52322;SDS011;38263;52.920;6.238;2023-03-23T02:50:10;9.95;;;4.88;;
52322;SDS011;38263;52.920;6.238;2023-03-23T02:52:37;9.35;;;4.13;;
52322;SDS011;38263;52.920;6.238;2023-03-23T02:55:05;8.70;;;4.82;;
52322;SDS011;38263;52.920;6.238;2023-03-23T02:57:33;6.82;;;4.00;;
52322;SDS011;38263;52.920;6.238;2023-03-23T03:00:00;9.88;;;4.20;;
52322;SDS011;38263;52.920;6.238;2023-03-23T03:02:26;5.82;;;3.88;;
52322;SDS011;38263;52.920;6.238;2023-03-23T03:10:18;6.10;;;3.83;;
52322;SDS011;38263;52.920;6.238;2023-03-23T03:13:03;6.72;;;4.18;;
52322;SDS011;38263;52.920;6.238;2023-03-23T03:18:03;7.22;;;4.03;;
52322;SDS011;38263;52.920;6.238;2023-03-23T03:21:02;7.22;;;4.40;;
52322;SDS011;38263;52.920;6.238;2023-03-23T03:23:28;5.93;;;3.83;;
52322;SDS011;38263;52.920;6.238;2023-03-23T03:25:55;7.63;;;3.83;;
52322;SDS011;38263;52.920;6.238;2023-03-23T03:28:22;7.32;;;4.38;;
52322;SDS011;38263;52.920;6.238;2023-03-23T03:30:51;7.72;;;3.95;;
52322;SDS011;38263;52.920;6.238;2023-03-23T03:33:19;7.70;;;4.13;;
52322;SDS011;38263;52.920;6.238;2023-03-23T03:35:45;5.80;;;3.85;;
52322;SDS011;38263;52.920;6.238;2023-03-23T03:38:12;11.60;;;4.78;;
52322;SDS011;38263;52.920;6.238;2023-03-23T03:43:54;10.05;;;5.13;;
52322;SDS011;38263;52.920;6.238;2023-03-23T03:46:20;7.97;;;5.03;;
52322;SDS011;38263;52.920;6.238;2023-03-23T03:48:46;10.18;;;4.13;;
52322;SDS011;38263;52.920;6.238;2023-03-23T03:51:12;5.85;;;4.40;;
52322;SDS011;38263;52.920;6.238;2023-03-23T03:53:38;8.13;;;4.03;;
52322;SDS011;38263;52.920;6.238;2023-03-23T03:56:04;6.65;;;3.92;;
52322;SDS011;38263;52.920;6.238;2023-03-23T03:58:30;7.30;;;4.20;;
52322;SDS011;38263;52.920;6.238;2023-03-23T04:00:59;8.77;;;4.03;;
52322;SDS011;38263;52.920;6.238;2023-03-23T04:03:25;5.30;;;4.13;;
52322;SDS011;38263;52.920;6.238;2023-03-23T04:05:52;6.78;;;4.28;;
52322;SDS011;38263;52.920;6.238;2023-03-23T04:08:20;7.03;;;3.83;;
52322;SDS011;38263;52.920;6.238;2023-03-23T04:10:47;7.50;;;4.45;;
52322;SDS011;38263;52.920;6.238;2023-03-23T04:13:13;7.15;;;4.57;;
52322;SDS011;38263;52.920;6.238;2023-03-23T04:15:40;9.27;;;4.85;;
52322;SDS011;38263;52.920;6.238;2023-03-23T04:18:05;9.73;;;4.90;;
52322;SDS011;38263;52.920;6.238;2023-03-23T04:20:31;6.32;;;4.18;;
52322;SDS011;38263;52.920;6.238;2023-03-23T04:22:57;6.13;;;4.00;;
52322;SDS011;38263;52.920;6.238;2023-03-23T04:25:25;10.88;;;4.65;;
52322;SDS011;38263;52.920;6.238;2023-03-23T04:27:52;6.65;;;4.38;;
52322;SDS011;38263;52.920;6.238;2023-03-23T04:30:22;6.88;;;3.55;;
52322;SDS011;38263;52.920;6.238;2023-03-23T04:32:49;11.02;;;4.25;;
52322;SDS011;38263;52.920;6.238;2023-03-23T04:35:17;8.55;;;3.90;;
52322;SDS011;38263;52.920;6.238;2023-03-23T04:37:43;10.38;;;3.60;;
52322;SDS011;38263;52.920;6.238;2023-03-23T04:40:10;8.20;;;3.83;;
52322;SDS011;38263;52.920;6.238;2023-03-23T04:42:39;8.55;;;4.07;;
52322;SDS011;38263;52.920;6.238;2023-03-23T04:45:06;11.75;;;3.65;;
52322;SDS011;38263;52.920;6.238;2023-03-23T04:47:34;6.00;;;3.10;;
52322;SDS011;38263;52.920;6.238;2023-03-23T04:50:14;5.60;;;3.05;;
52322;SDS011;38263;52.920;6.238;2023-03-23T04:52:40;6.88;;;2.42;;
52322;SDS011;38263;52.920;6.238;2023-03-23T04:55:10;10.73;;;2.40;;
52322;SDS011;38263;52.920;6.238;2023-03-23T04:57:37;8.90;;;2.00;;
52322;SDS011;38263;52.920;6.238;2023-03-23T05:00:03;9.23;;;2.00;;
52322;SDS011;38263;52.920;6.238;2023-03-23T05:02:37;6.80;;;2.22;;
52322;SDS011;38263;52.920;6.238;2023-03-23T05:05:05;8.13;;;2.25;;
52322;SDS011;38263;52.920;6.238;2023-03-23T05:07:35;9.50;;;2.63;;
52322;SDS011;38263;52.920;6.238;2023-03-23T05:10:02;9.98;;;2.47;;
52322;SDS011;38263;52.920;6.238;2023-03-23T05:12:28;8.13;;;2.50;;
52322;SDS011;38263;52.920;6.238;2023-03-23T05:14:54;7.85;;;2.45;;
52322;SDS011;38263;52.920;6.238;2023-03-23T05:17:20;6.57;;;2.67;;
52322;SDS011;38263;52.920;6.238;2023-03-23T05:19:45;6.72;;;2.38;;
52322;SDS011;38263;52.920;6.238;2023-03-23T05:22:12;9.68;;;2.50;;
52322;SDS011;38263;52.920;6.238;2023-03-23T05:24:39;17.17;;;3.15;;
52322;SDS011;38263;52.920;6.238;2023-03-23T05:27:05;10.70;;;2.78;;
52322;SDS011;38263;52.920;6.238;2023-03-23T05:29:33;13.38;;;3.30;;
52322;SDS011;38263;52.920;6.238;2023-03-23T05:32:01;9.20;;;2.80;;
52322;SDS011;38263;52.920;6.238;2023-03-23T05:34:28;10.30;;;2.67;;
52322;SDS011;38263;52.920;6.238;2023-03-23T05:36:57;12.00;;;2.85;;
52322;SDS011;38263;52.920;6.238;2023-03-23T05:39:23;16.35;;;3.05;;
52322;SDS011;38263;52.920;6.238;2023-03-23T05:41:49;15.82;;;4.57;;
52322;SDS011;38263;52.920;6.238;2023-03-23T05:44:15;8.10;;;2.75;;
52322;SDS011;38263;52.920;6.238;2023-03-23T05:46:41;8.60;;;2.83;;
52322;SDS011;38263;52.920;6.238;2023-03-23T05:49:08;12.25;;;4.15;;
52322;SDS011;38263;52.920;6.238;2023-03-23T05:51:34;7.53;;;2.40;;
52322;SDS011;38263;52.920;6.238;2023-03-23T05:54:00;10.48;;;2.67;;
52322;SDS011;38263;52.920;6.238;2023-03-23T05:56:27;13.13;;;3.30;;
52322;SDS011;38263;52.920;6.238;2023-03-23T05:58:55;16.90;;;2.78;;
52322;SDS011;38263;52.920;6.238;2023-03-23T06:01:21;14.95;;;3.25;;
52322;SDS011;38263;52.920;6.238;2023-03-23T06:03:46;14.23;;;3.22;;
52322;SDS011;38263;52.920;6.238;2023-03-23T06:06:14;13.10;;;3.10;;
52322;SDS011;38263;52.920;6.238;2023-03-23T06:08:40;16.63;;;3.17;;
52322;SDS011;38263;52.920;6.238;2023-03-23T06:11:06;10.40;;;3.13;;
52322;SDS011;38263;52.920;6.238;2023-03-23T06:13:31;11.25;;;3.38;;
52322;SDS011;38263;52.920;6.238;2023-03-23T06:15:57;14.27;;;3.63;;
52322;SDS011;38263;52.920;6.238;2023-03-23T06:18:23;8.55;;;3.38;;
52322;SDS011;38263;52.920;6.238;2023-03-23T06:20:50;13.18;;;3.83;;
52322;SDS011;38263;52.920;6.238;2023-03-23T06:23:15;17.02;;;3.13;;
52322;SDS011;38263;52.920;6.238;2023-03-23T06:25:42;15.85;;;3.88;;
52322;SDS011;38263;52.920;6.238;2023-03-23T06:28:08;15.52;;;3.25;;
52322;SDS011;38263;52.920;6.238;2023-03-23T06:30:35;15.55;;;3.30;;
52322;SDS011;38263;52.920;6.238;2023-03-23T06:33:02;10.85;;;2.88;;
52322;SDS011;38263;52.920;6.238;2023-03-23T06:35:30;16.58;;;3.95;;
52322;SDS011;38263;52.920;6.238;2023-03-23T06:37:57;19.45;;;3.47;;
52322;SDS011;38263;52.920;6.238;2023-03-23T06:40:26;16.38;;;3.92;;
52322;SDS011;38263;52.920;6.238;2023-03-23T06:42:53;11.73;;;3.08;;
52322;SDS011;38263;52.920;6.238;2023-03-23T06:45:19;17.17;;;3.72;;
52322;SDS011;38263;52.920;6.238;2023-03-23T06:47:45;18.25;;;3.28;;
52322;SDS011;38263;52.920;6.238;2023-03-23T06:50:13;17.83;;;4.25;;
52322;SDS011;38263;52.920;6.238;2023-03-23T06:52:40;19.35;;;3.97;;
52322;SDS011;38263;52.920;6.238;2023-03-23T06:55:06;18.23;;;4.55;;
52322;SDS011;38263;52.920;6.238;2023-03-23T06:57:33;17.65;;;3.78;;
52322;SDS011;38263;52.920;6.238;2023-03-23T06:59:59;12.43;;;3.22;;
52322;SDS011;38263;52.920;6.238;2023-03-23T07:02:25;27.00;;;4.65;;
52322;SDS011;38263;52.920;6.238;2023-03-23T07:04:51;21.58;;;4.28;;
52322;SDS011;38263;52.920;6.238;2023-03-23T07:07:19;21.48;;;4.72;;
52322;SDS011;38263;52.920;6.238;2023-03-23T07:09:45;15.80;;;3.03;;
52322;SDS011;38263;52.920;6.238;2023-03-23T07:12:11;21.35;;;4.07;;
52322;SDS011;38263;52.920;6.238;2023-03-23T07:14:37;22.50;;;3.70;;
52322;SDS011;38263;52.920;6.238;2023-03-23T07:17:03;15.65;;;3.45;;
52322;SDS011;38263;52.920;6.238;2023-03-23T07:19:29;14.98;;;3.90;;
52322;SDS011;38263;52.920;6.238;2023-03-23T07:21:55;18.73;;;3.35;;
52322;SDS011;38263;52.920;6.238;2023-03-23T07:24:22;13.85;;;3.45;;
52322;SDS011;38263;52.920;6.238;2023-03-23T07:26:48;23.85;;;4.15;;
52322;SDS011;38263;52.920;6.238;2023-03-23T07:29:14;21.70;;;3.95;;
52322;SDS011;38263;52.920;6.238;2023-03-23T07:31:40;22.05;;;3.80;;
52322;SDS011;38263;52.920;6.238;2023-03-23T07:34:06;12.43;;;3.17;;
52322;SDS011;38263;52.920;6.238;2023-03-23T07:36:32;16.25;;;3.50;;
52322;SDS011;38263;52.920;6.238;2023-03-23T07:39:02;17.67;;;3.90;;
52322;SDS011;38263;52.920;6.238;2023-03-23T07:41:30;21.45;;;3.45;;
52322;SDS011;38263;52.920;6.238;2023-03-23T07:43:56;20.65;;;4.50;;
52322;SDS011;38263;52.920;6.238;2023-03-23T07:46:22;21.08;;;4.72;;
52322;SDS011;38263;52.920;6.238;2023-03-23T07:48:48;21.40;;;4.15;;
52322;SDS011;38263;52.920;6.238;2023-03-23T07:51:14;25.50;;;4.50;;
52322;SDS011;38263;52.920;6.238;2023-03-23T07:53:41;20.40;;;4.00;;
52322;SDS011;38263;52.920;6.238;2023-03-23T07:56:09;20.00;;;4.22;;
52322;SDS011;38263;52.920;6.238;2023-03-23T07:58:36;16.63;;;4.30;;
52322;SDS011;38263;52.920;6.238;2023-03-23T08:01:02;26.55;;;4.53;;
52322;SDS011;38263;52.920;6.238;2023-03-23T08:03:28;24.20;;;4.95;;
52322;SDS011;38263;52.920;6.238;2023-03-23T08:05:56;27.63;;;6.57;;
52322;SDS011;38263;52.920;6.238;2023-03-23T08:08:23;26.15;;;6.97;;
52322;SDS011;38263;52.920;6.238;2023-03-23T08:10:49;27.60;;;5.15;;
52322;SDS011;38263;52.920;6.238;2023-03-23T08:13:16;20.35;;;4.72;;
52322;SDS011;38263;52.920;6.238;2023-03-23T08:15:42;26.80;;;4.70;;
52322;SDS011;38263;52.920;6.238;2023-03-23T08:18:09;25.42;;;5.18;;
52322;SDS011;38263;52.920;6.238;2023-03-23T08:20:36;25.80;;;5.13;;
52322;SDS011;38263;52.920;6.238;2023-03-23T08:23:03;23.83;;;5.18;;
52322;SDS011;38263;52.920;6.238;2023-03-23T08:25:29;31.20;;;5.65;;
52322;SDS011;38263;52.920;6.238;2023-03-23T08:27:59;27.23;;;5.10;;
52322;SDS011;38263;52.920;6.238;2023-03-23T08:30:26;27.17;;;4.90;;
52322;SDS011;38263;52.920;6.238;2023-03-23T08:32:54;26.75;;;5.18;;
52322;SDS011;38263;52.920;6.238;2023-03-23T08:35:21;28.83;;;5.43;;
52322;SDS011;38263;52.920;6.238;2023-03-23T08:37:47;24.42;;;4.95;;
52322;SDS011;38263;52.920;6.238;2023-03-23T08:40:16;25.48;;;4.90;;
52322;SDS011;38263;52.920;6.238;2023-03-23T08:42:44;23.45;;;4.05;;
52322;SDS011;38263;52.920;6.238;2023-03-23T08:45:12;26.70;;;4.65;;
52322;SDS011;38263;52.920;6.238;2023-03-23T08:47:40;24.42;;;4.40;;
52322;SDS011;38263;52.920;6.238;2023-03-23T08:50:09;26.00;;;4.65;;
52322;SDS011;38263;52.920;6.238;2023-03-23T08:52:37;19.95;;;4.55;;
52322;SDS011;38263;52.920;6.238;2023-03-23T08:55:04;24.85;;;4.53;;
52322;SDS011;38263;52.920;6.238;2023-03-23T08:57:30;28.23;;;5.32;;
52322;SDS011;38263;52.920;6.238;2023-03-23T08:59:56;21.35;;;5.18;;
52322;SDS011;38263;52.920;6.238;2023-03-23T09:02:25;25.58;;;5.13;;
52322;SDS011;38263;52.920;6.238;2023-03-23T09:04:51;21.08;;;4.78;;
52322;SDS011;38263;52.920;6.238;2023-03-23T09:07:18;21.58;;;4.95;;
52322;SDS011;38263;52.920;6.238;2023-03-23T09:09:44;25.08;;;5.88;;
52322;SDS011;38263;52.920;6.238;2023-03-23T09:12:10;22.40;;;4.90;;
52322;SDS011;38263;52.920;6.238;2023-03-23T09:14:37;26.73;;;4.68;;
52322;SDS011;38263;52.920;6.238;2023-03-23T09:17:03;28.35;;;6.32;;
52322;SDS011;38263;52.920;6.238;2023-03-23T09:19:30;22.08;;;4.45;;
52322;SDS011;38263;52.920;6.238;2023-03-23T09:21:57;27.60;;;6.03;;
52322;SDS011;38263;52.920;6.238;2023-03-23T09:24:24;27.38;;;5.25;;
52322;SDS011;38263;52.920;6.238;2023-03-23T09:26:50;26.17;;;4.38;;
52322;SDS011;38263;52.920;6.238;2023-03-23T09:29:16;23.33;;;3.88;;
52322;SDS011;38263;52.920;6.238;2023-03-23T09:31:43;20.95;;;4.90;;
52322;SDS011;38263;52.920;6.238;2023-03-23T09:34:11;24.63;;;4.10;;
52322;SDS011;38263;52.920;6.238;2023-03-23T09:36:37;35.50;;;5.75;;
52322;SDS011;38263;52.920;6.238;2023-03-23T09:39:04;25.48;;;4.72;;
52322;SDS011;38263;52.920;6.238;2023-03-23T09:47:29;17.45;;;4.95;;
52322;SDS011;38263;52.920;6.238;2023-03-23T09:50:15;22.10;;;5.07;;
52322;SDS011;38263;52.920;6.238;2023-03-23T09:52:56;19.88;;;4.80;;
52322;SDS011;38263;52.920;6.238;2023-03-23T09:55:28;16.60;;;4.03;;
52322;SDS011;38263;52.920;6.238;2023-03-23T09:57:57;17.30;;;4.07;;
52322;SDS011;38263;52.920;6.238;2023-03-23T10:00:57;20.15;;;3.80;;
52322;SDS011;38263;52.920;6.238;2023-03-23T10:03:40;20.83;;;4.47;;
52322;SDS011;38263;52.920;6.238;2023-03-23T10:06:09;13.80;;;3.63;;
52322;SDS011;38263;52.920;6.238;2023-03-23T10:08:37;17.13;;;4.28;;
52322;SDS011;38263;52.920;6.238;2023-03-23T10:11:37;17.05;;;3.88;;
52322;SDS011;38263;52.920;6.238;2023-03-23T10:22:09;15.77;;;3.38;;
52322;SDS011;38263;52.920;6.238;2023-03-23T10:24:41;17.98;;;2.95;;
52322;SDS011;38263;52.920;6.238;2023-03-23T10:27:26;18.10;;;3.08;;
52322;SDS011;38263;52.920;6.238;2023-03-23T10:30:13;16.33;;;3.40;;
52322;SDS011;38263;52.920;6.238;2023-03-23T10:32:53;12.32;;;3.20;;
52322;SDS011;38263;52.920;6.238;2023-03-23T10:38:26;11.43;;;2.70;;
52322;SDS011;38263;52.920;6.238;2023-03-23T10:41:04;11.93;;;3.08;;
52322;SDS011;38263;52.920;6.238;2023-03-23T10:43:36;18.13;;;3.20;;
52322;SDS011;38263;52.920;6.238;2023-03-23T10:46:11;11.50;;;3.63;;
52322;SDS011;38263;52.920;6.238;2023-03-23T10:48:47;11.68;;;2.83;;
52322;SDS011;38263;52.920;6.238;2023-03-23T10:51:16;14.32;;;2.92;;
52322;SDS011;38263;52.920;6.238;2023-03-23T10:53:49;11.88;;;3.42;;
52322;SDS011;38263;52.920;6.238;2023-03-23T11:01:42;14.23;;;3.10;;
52322;SDS011;38263;52.920;6.238;2023-03-23T11:04:13;14.05;;;3.95;;
52322;SDS011;38263;52.920;6.238;2023-03-23T11:06:43;12.57;;;2.75;;
52322;SDS011;38263;52.920;6.238;2023-03-23T11:11:38;16.52;;;2.67;;
52322;SDS011;38263;52.920;6.238;2023-03-23T11:16:44;16.10;;;3.38;;
52322;SDS011;38263;52.920;6.238;2023-03-23T11:19:15;19.48;;;4.18;;
52322;SDS011;38263;52.920;6.238;2023-03-23T11:21:54;10.90;;;2.58;;
52322;SDS011;38263;52.920;6.238;2023-03-23T11:24:25;12.50;;;2.97;;
52322;SDS011;38263;52.920;6.238;2023-03-23T11:26:52;15.35;;;3.13;;
52322;SDS011;38263;52.920;6.238;2023-03-23T11:31:46;15.45;;;3.78;;
52322;SDS011;38263;52.920;6.238;2023-03-23T11:34:20;9.55;;;2.20;;
52322;SDS011;38263;52.920;6.238;2023-03-23T11:36:50;10.90;;;2.50;;
52322;SDS011;38263;52.920;6.238;2023-03-23T11:39:26;16.38;;;3.28;;
52322;SDS011;38263;52.920;6.238;2023-03-23T11:41:57;10.25;;;2.13;;
52322;SDS011;38263;52.920;6.238;2023-03-23T11:44:30;11.73;;;2.38;;
52322;SDS011;38263;52.920;6.238;2023-03-23T11:49:41;15.38;;;2.90;;
52322;SDS011;38263;52.920;6.238;2023-03-23T11:52:16;16.88;;;2.83;;
52322;SDS011;38263;52.920;6.238;2023-03-23T11:54:57;10.23;;;2.05;;
52322;SDS011;38263;52.920;6.238;2023-03-23T11:57:34;15.20;;;2.38;;
52322;SDS011;38263;52.920;6.238;2023-03-23T12:00:00;15.27;;;2.88;;
52322;SDS011;38263;52.920;6.238;2023-03-23T12:02:56;14.73;;;2.90;;
52322;SDS011;38263;52.920;6.238;2023-03-23T12:05:30;16.17;;;5.43;;
52322;SDS011;38263;52.920;6.238;2023-03-23T12:13:14;20.17;;;3.25;;
52322;SDS011;38263;52.920;6.238;2023-03-23T12:26:14;12.00;;;3.85;;
52322;SDS011;38263;52.920;6.238;2023-03-23T12:31:37;15.73;;;3.08;;
52322;SDS011;38263;52.920;6.238;2023-03-23T12:42:24;18.33;;;2.95;;
52322;SDS011;38263;52.920;6.238;2023-03-23T12:45:17;12.75;;;3.13;;
52322;SDS011;38263;52.920;6.238;2023-03-23T12:48:10;14.93;;;2.95;;
52322;SDS011;38263;52.920;6.238;2023-03-23T12:53:36;12.50;;;3.20;;
52322;SDS011;38263;52.920;6.238;2023-03-23T12:58:40;13.65;;;2.88;;
52322;SDS011;38263;52.920;6.238;2023-03-23T13:01:20;10.73;;;2.47;;
52322;SDS011;38263;52.920;6.238;2023-03-23T13:03:59;12.55;;;2.83;;
52322;SDS011;38263;52.920;6.238;2023-03-23T13:06:34;12.20;;;2.60;;
52322;SDS011;38263;52.920;6.238;2023-03-23T13:09:03;14.50;;;3.10;;
52322;SDS011;38263;52.920;6.238;2023-03-23T13:11:39;11.88;;;2.63;;
52322;SDS011;38263;52.920;6.238;2023-03-23T13:14:14;7.38;;;2.20;;
52322;SDS011;38263;52.920;6.238;2023-03-23T13:16:51;15.00;;;3.28;;
52322;SDS011;38263;52.920;6.238;2023-03-23T13:21:54;20.63;;;4.45;;
52322;SDS011;38263;52.920;6.238;2023-03-23T13:24:35;17.30;;;2.83;;
52322;SDS011;38263;52.920;6.238;2023-03-23T13:27:04;18.70;;;3.80;;
52322;SDS011;38263;52.920;6.238;2023-03-23T13:29:33;17.83;;;2.92;;
52322;SDS011;38263;52.920;6.238;2023-03-23T13:32:06;14.15;;;2.35;;
52322;SDS011;38263;52.920;6.238;2023-03-23T13:34:36;17.70;;;3.60;;
52322;SDS011;38263;52.920;6.238;2023-03-23T13:37:05;15.93;;;3.53;;
52322;SDS011;38263;52.920;6.238;2023-03-23T13:39:37;18.02;;;3.40;;
52322;SDS011;38263;52.920;6.238;2023-03-23T13:49:56;14.43;;;2.47;;
52322;SDS011;38263;52.920;6.238;2023-03-23T14:05:39;11.77;;;2.70;;
52322;SDS011;38263;52.920;6.238;2023-03-23T14:11:09;18.60;;;3.65;;
52322;SDS011;38263;52.920;6.238;2023-03-23T14:16:44;16.88;;;3.28;;
52322;SDS011;38263;52.920;6.238;2023-03-23T14:19:03;16.27;;;3.50;;
52322;SDS011;38263;52.920;6.238;2023-03-23T14:21:40;12.57;;;2.53;;
52322;SDS011;38263;52.920;6.238;2023-03-23T14:24:11;12.15;;;2.42;;
52322;SDS011;38263;52.920;6.238;2023-03-23T14:26:40;15.70;;;3.13;;
52322;SDS011;38263;52.920;6.238;2023-03-23T14:29:09;16.08;;;2.75;;
52322;SDS011;38263;52.920;6.238;2023-03-23T14:31:36;10.98;;;2.78;;
52322;SDS011;38263;52.920;6.238;2023-03-23T14:34:04;13.50;;;2.90;;
52322;SDS011;38263;52.920;6.238;2023-03-23T14:36:37;17.55;;;3.17;;
52322;SDS011;38263;52.920;6.238;2023-03-23T14:39:14;17.85;;;2.60;;
52322;SDS011;38263;52.920;6.238;2023-03-23T14:42:04;12.15;;;3.10;;
52322;SDS011;38263;52.920;6.238;2023-03-23T14:44:35;10.27;;;2.60;;
52322;SDS011;38263;52.920;6.238;2023-03-23T14:47:06;10.50;;;2.17;;
52322;SDS011;38263;52.920;6.238;2023-03-23T14:49:39;12.95;;;2.25;;
52322;SDS011;38263;52.920;6.238;2023-03-23T14:52:11;8.90;;;1.88;;
52322;SDS011;38263;52.920;6.238;2023-03-23T14:54:41;13.70;;;2.08;;
52322;SDS011;38263;52.920;6.238;2023-03-23T14:57:15;8.80;;;2.50;;
52322;SDS011;38263;52.920;6.238;2023-03-23T14:59:51;10.55;;;2.40;;
52322;SDS011;38263;52.920;6.238;2023-03-23T15:07:20;12.05;;;2.55;;
52322;SDS011;38263;52.920;6.238;2023-03-23T15:09:55;9.00;;;2.45;;
52322;SDS011;38263;52.920;6.238;2023-03-23T15:12:25;13.57;;;2.78;;
52322;SDS011;38263;52.920;6.238;2023-03-23T15:14:57;11.52;;;4.13;;
52322;SDS011;38263;52.920;6.238;2023-03-23T15:17:29;9.43;;;1.88;;
52322;SDS011;38263;52.920;6.238;2023-03-23T15:20:07;10.80;;;2.08;;
52322;SDS011;38263;52.920;6.238;2023-03-23T15:22:45;9.50;;;2.67;;
52322;SDS011;38263;52.920;6.238;2023-03-23T15:25:19;13.68;;;2.95;;
52322;SDS011;38263;52.920;6.238;2023-03-23T15:27:55;11.70;;;2.47;;
52322;SDS011;38263;52.920;6.238;2023-03-23T15:32:52;12.77;;;2.80;;
52322;SDS011;38263;52.920;6.238;2023-03-23T15:35:21;11.60;;;2.20;;
52322;SDS011;38263;52.920;6.238;2023-03-23T15:37:52;12.88;;;2.83;;
52322;SDS011;38263;52.920;6.238;2023-03-23T15:40:26;12.35;;;2.70;;
52322;SDS011;38263;52.920;6.238;2023-03-23T15:45:53;12.68;;;3.05;;
52322;SDS011;38263;52.920;6.238;2023-03-23T15:48:21;11.38;;;2.28;;
52322;SDS011;38263;52.920;6.238;2023-03-23T15:50:48;10.20;;;2.40;;
52322;SDS011;38263;52.920;6.238;2023-03-23T15:53:37;11.48;;;2.97;;
52322;SDS011;38263;52.920;6.238;2023-03-23T15:56:03;16.52;;;4.05;;
52322;SDS011;38263;52.920;6.238;2023-03-23T15:58:31;14.38;;;2.47;;
52322;SDS011;38263;52.920;6.238;2023-03-23T16:00:58;15.55;;;2.70;;
52322;SDS011;38263;52.920;6.238;2023-03-23T16:03:35;13.32;;;3.13;;
52322;SDS011;38263;52.920;6.238;2023-03-23T16:06:10;15.30;;;3.33;;
52322;SDS011;38263;52.920;6.238;2023-03-23T16:08:36;16.17;;;3.50;;
52322;SDS011;38263;52.920;6.238;2023-03-23T16:11:05;11.70;;;3.10;;
52322;SDS011;38263;52.920;6.238;2023-03-23T16:13:32;21.55;;;5.18;;
52322;SDS011;38263;52.920;6.238;2023-03-23T16:15:58;13.55;;;3.35;;
52322;SDS011;38263;52.920;6.238;2023-03-23T16:18:23;15.55;;;2.80;;
52322;SDS011;38263;52.920;6.238;2023-03-23T16:20:49;10.75;;;2.45;;
52322;SDS011;38263;52.920;6.238;2023-03-23T16:23:16;21.55;;;3.00;;
52322;SDS011;38263;52.920;6.238;2023-03-23T16:25:42;13.27;;;2.75;;
52322;SDS011;38263;52.920;6.238;2023-03-23T16:28:11;17.27;;;3.55;;
52322;SDS011;38263;52.920;6.238;2023-03-23T16:30:38;12.30;;;2.80;;
52322;SDS011;38263;52.920;6.238;2023-03-23T16:33:05;14.95;;;3.60;;
52322;SDS011;38263;52.920;6.238;2023-03-23T16:35:31;15.65;;;3.00;;
52322;SDS011;38263;52.920;6.238;2023-03-23T16:37:57;14.75;;;2.60;;
52322;SDS011;38263;52.920;6.238;2023-03-23T16:40:23;13.00;;;2.75;;
52322;SDS011;38263;52.920;6.238;2023-03-23T16:42:49;9.38;;;2.28;;
52322;SDS011;38263;52.920;6.238;2023-03-23T16:45:16;18.55;;;3.72;;
52322;SDS011;38263;52.920;6.238;2023-03-23T16:47:42;15.23;;;3.38;;
52322;SDS011;38263;52.920;6.238;2023-03-23T16:50:09;22.23;;;2.65;;
52322;SDS011;38263;52.920;6.238;2023-03-23T16:52:40;10.98;;;3.08;;
52322;SDS011;38263;52.920;6.238;2023-03-23T16:55:08;15.60;;;3.90;;
52322;SDS011;38263;52.920;6.238;2023-03-23T16:57:36;17.30;;;4.22;;
52322;SDS011;38263;52.920;6.238;2023-03-23T17:00:04;14.18;;;4.03;;
52322;SDS011;38263;52.920;6.238;2023-03-23T17:06:18;15.57;;;4.10;;
52322;SDS011;38263;52.920;6.238;2023-03-23T17:08:45;16.55;;;4.05;;